createdAt,value
2023-01-01T00:01:41.928Z,12.30
2023-01-01T00:04:14.443Z,12.60
2023-01-01T00:06:42.809Z,12.10
2023-01-01T00:09:27.901Z,12.10
2023-01-01T00:11:55.706Z,12.40
2023-01-01T00:14:26.764Z,12.10
2023-01-01T00:16:55.711Z,12.30
2023-01-01T00:19:24.865Z,12.30
2023-01-01T00:21:55.365Z,12.10
2023-01-01T00:24:23.114Z,12.50
2023-01-01T00:26:50.877Z,12.20
2023-01-01T00:29:18.615Z,12.20
2023-01-01T00:31:47.960Z,12.10
2023-01-01T00:34:15.901Z,12.30
2023-01-01T00:36:44.982Z,12.10
2023-01-01T00:39:12.746Z,12.30
2023-01-01T00:41:40.481Z,12.40
2023-01-01T00:44:08.254Z,12.10
2023-01-01T00:46:36.088Z,12.00
2023-01-01T00:49:13.512Z,12.10
2023-01-01T00:51:41.299Z,12.80
2023-01-01T00:54:10.519Z,12.00
2023-01-01T00:56:38.318Z,12.30
2023-01-01T00:59:06.318Z,11.90
2023-01-01T01:01:34.605Z,12.10
2023-01-01T01:04:03.799Z,11.90
2023-01-01T01:06:31.642Z,12.10
2023-01-01T01:08:59.384Z,11.90
2023-01-01T01:11:28.472Z,12.10
2023-01-01T01:13:57.509Z,11.90
2023-01-01T01:16:27.005Z,12.10
2023-01-01T01:18:57.524Z,11.80
2023-01-01T01:21:26.099Z,12.00
2023-01-01T01:23:54.923Z,11.80
2023-01-01T01:26:24.824Z,11.80
2023-01-01T01:28:54.801Z,11.90
2023-01-01T01:31:24.358Z,11.70
2023-01-01T01:33:52.741Z,12.10
2023-01-01T01:36:20.853Z,12.00
2023-01-01T01:38:48.744Z,12.20
2023-01-01T01:41:27.223Z,12.00
2023-01-01T01:43:59.761Z,12.00
2023-01-01T01:46:35.820Z,12.20
2023-01-01T01:49:06.740Z,11.80
2023-01-01T01:51:37.761Z,11.90
2023-01-01T01:54:11.444Z,11.80
2023-01-01T01:56:45.712Z,12.40
2023-01-01T01:59:15.833Z,11.90
2023-01-01T02:01:43.655Z,12.00
2023-01-01T02:04:12.449Z,12.20
2023-01-01T02:06:41.065Z,12.30
2023-01-01T02:09:10.402Z,12.20
2023-01-01T02:11:38.583Z,12.10
2023-01-01T02:14:07.048Z,11.90
2023-01-01T02:16:40.456Z,11.90
2023-01-01T02:19:18.292Z,11.90
2023-01-01T02:21:55.741Z,11.80
2023-01-01T02:24:41.259Z,12.00
2023-01-01T02:27:16.377Z,11.70
2023-01-01T02:29:49.766Z,11.90
2023-01-01T02:32:21.901Z,11.70
2023-01-01T02:34:54.318Z,11.70
2023-01-01T02:37:24.223Z,11.60
2023-01-01T02:39:56.254Z,11.70
2023-01-01T02:42:28.588Z,11.60
2023-01-01T02:44:59.175Z,11.40
2023-01-01T02:47:26.926Z,11.50
2023-01-01T02:50:00.436Z,11.40
2023-01-01T02:53:06.255Z,11.30
2023-01-01T02:55:40.724Z,11.60
2023-01-01T02:58:30.723Z,11.80
2023-01-01T03:01:09.266Z,11.50
2023-01-01T03:03:43.243Z,11.50
2023-01-01T03:06:23.562Z,11.50
2023-01-01T03:08:59.005Z,11.70
2023-01-01T03:11:33.429Z,11.60
2023-01-01T03:14:06.783Z,11.40
2023-01-01T03:16:39.390Z,11.40
2023-01-01T03:19:12.984Z,11.50
2023-01-01T03:21:44.541Z,11.40
2023-01-01T03:24:18.559Z,11.60
2023-01-01T03:26:49.531Z,11.60
2023-01-01T03:29:18.875Z,11.50
2023-01-01T03:31:51.791Z,11.70
2023-01-01T03:34:23.254Z,11.90
2023-01-01T03:36:56.140Z,11.70
2023-01-01T03:39:27.837Z,11.70
2023-01-01T03:42:01.766Z,11.70
2023-01-01T03:44:35.020Z,11.80
2023-01-01T03:47:07.018Z,11.30
2023-01-01T03:49:35.579Z,11.40
2023-01-01T03:52:17.024Z,11.60
2023-01-01T03:54:58.468Z,11.30
2023-01-01T03:57:32.668Z,11.50
2023-01-01T04:00:07.999Z,11.60
2023-01-01T04:02:40.727Z,11.50
2023-01-01T04:05:11.140Z,11.30
2023-01-01T04:07:40.026Z,11.40
2023-01-01T04:10:17.992Z,11.30
2023-01-01T04:12:48.752Z,11.60
2023-01-01T04:15:17.287Z,11.50
2023-01-01T04:17:46.886Z,11.60
2023-01-01T04:20:15.374Z,11.40
2023-01-01T04:22:43.314Z,11.30
2023-01-01T04:25:12.182Z,11.40
2023-01-01T04:27:40.345Z,11.20
2023-01-01T04:30:10.599Z,11.30
2023-01-01T04:32:38.520Z,11.30
2023-01-01T04:35:09.907Z,11.30
2023-01-01T04:37:37.912Z,11.40
2023-01-01T04:40:07.113Z,11.30
2023-01-01T04:42:35.442Z,11.20
2023-01-01T04:45:03.880Z,11.10
2023-01-01T04:47:31.674Z,11.40
2023-01-01T04:49:59.427Z,11.10
2023-01-01T04:52:28.660Z,11.30
2023-01-01T04:54:56.463Z,11.30
2023-01-01T04:57:24.202Z,11.10
2023-01-01T04:59:51.961Z,11.10
2023-01-01T05:02:19.860Z,11.20
2023-01-01T05:04:47.715Z,11.30
2023-01-01T05:07:15.442Z,11.30
2023-01-01T05:09:44.547Z,11.20
2023-01-01T05:12:12.296Z,11.30
2023-01-01T05:14:40.037Z,11.40
2023-01-01T05:17:07.793Z,11.00
2023-01-01T05:19:35.579Z,11.20
2023-01-01T05:22:10.257Z,11.50
2023-01-01T05:24:38.549Z,11.20
2023-01-01T05:27:08.608Z,11.10
2023-01-01T05:29:36.387Z,11.20
2023-01-01T05:32:04.310Z,11.20
2023-01-01T05:36:58.915Z,11.10
2023-01-01T05:39:26.685Z,11.40
2023-01-01T05:41:54.413Z,11.00
2023-01-01T05:44:23.558Z,11.20
2023-01-01T05:46:51.336Z,11.20
2023-01-01T05:49:19.085Z,11.50
2023-01-01T05:51:46.852Z,11.20
2023-01-01T05:56:41.429Z,11.20
2023-01-01T05:59:11.070Z,10.80
2023-01-01T06:01:45.469Z,11.10
2023-01-01T06:04:14.503Z,11.30
2023-01-01T06:06:42.405Z,10.90
2023-01-01T06:09:11.561Z,11.00
2023-01-01T06:11:39.400Z,11.00
2023-01-01T06:14:07.153Z,10.70
2023-01-01T06:16:35.029Z,10.80
2023-01-01T06:19:04.313Z,11.00
2023-01-01T06:21:32.042Z,10.80
2023-01-01T06:24:00.718Z,11.10
2023-01-01T06:26:30.795Z,10.70
2023-01-01T06:28:59.340Z,11.20
2023-01-01T06:31:28.381Z,10.90
2023-01-01T06:33:56.348Z,10.90
2023-01-01T06:36:26.601Z,10.80
2023-01-01T06:38:56.651Z,10.60
2023-01-01T06:41:26.600Z,10.70
2023-01-01T06:43:55.982Z,10.80
2023-01-01T06:46:27.107Z,10.60
2023-01-01T06:48:56.316Z,10.60
2023-01-01T06:51:26.608Z,10.60
2023-01-01T06:53:54.842Z,10.60
2023-01-01T06:56:22.915Z,10.70
2023-01-01T06:58:50.789Z,10.70
2023-01-01T07:01:20.625Z,10.70
2023-01-01T07:03:52.292Z,10.70
2023-01-01T07:06:20.141Z,10.70
2023-01-01T07:08:49.394Z,10.50
2023-01-01T07:11:17.314Z,10.80
2023-01-01T07:13:45.421Z,10.70
2023-01-01T07:16:13.898Z,10.50
2023-01-01T07:18:42.147Z,10.40
2023-01-01T07:21:29.441Z,10.70
2023-01-01T07:23:59.291Z,10.40
2023-01-01T07:26:28.070Z,10.50
2023-01-01T07:28:59.650Z,10.60
2023-01-01T07:31:33.983Z,10.40
2023-01-01T07:34:01.762Z,10.40
2023-01-01T07:36:29.507Z,10.40
2023-01-01T07:38:58.583Z,10.50
2023-01-01T07:41:26.333Z,10.40
2023-01-01T07:43:54.077Z,10.60
2023-01-01T07:46:21.973Z,10.50
2023-01-01T07:48:49.883Z,10.70
2023-01-01T07:51:17.634Z,10.80
2023-01-01T07:53:45.400Z,10.40
2023-01-01T07:56:14.485Z,10.50
2023-01-01T07:58:42.656Z,10.60
2023-01-01T08:01:11.691Z,10.80
2023-01-01T08:03:39.634Z,10.70
2023-01-01T08:06:09.763Z,10.60
2023-01-01T08:08:37.642Z,10.90
2023-01-01T08:11:05.948Z,10.80
2023-01-01T08:13:35.287Z,10.90
2023-01-01T08:16:03.279Z,10.80
2023-01-01T08:18:31.040Z,10.80
2023-01-01T08:20:58.835Z,10.80
2023-01-01T08:23:26.660Z,11.00
2023-01-01T08:25:54.400Z,11.00
2023-01-01T08:28:22.135Z,11.10
2023-01-01T08:30:51.458Z,11.10
2023-01-01T08:33:19.250Z,10.90
2023-01-01T08:35:53.707Z,11.00
2023-01-01T08:38:22.014Z,11.20
2023-01-01T08:40:49.814Z,11.20
2023-01-01T08:43:17.605Z,11.30
2023-01-01T08:45:45.519Z,11.20
2023-01-01T08:48:14.603Z,11.40
2023-01-01T08:50:42.372Z,11.40
2023-01-01T08:53:10.124Z,11.30
2023-01-01T08:55:37.860Z,11.30
2023-01-01T08:58:07.433Z,11.30
2023-01-01T09:00:35.210Z,11.30
2023-01-01T09:03:03.086Z,11.10
2023-01-01T09:05:32.269Z,11.50
2023-01-01T09:08:00.063Z,11.60
2023-01-01T09:10:27.824Z,11.60
2023-01-01T09:12:55.575Z,11.60
2023-01-01T09:15:23.438Z,11.50
2023-01-01T09:17:51.254Z,11.60
2023-01-01T09:20:19.019Z,11.70
2023-01-01T09:22:48.089Z,11.40
2023-01-01T09:25:15.864Z,11.40
2023-01-01T09:27:43.613Z,11.80
2023-01-01T09:30:12.322Z,11.70
2023-01-01T09:32:40.159Z,11.80
2023-01-01T09:35:08.491Z,11.90
2023-01-01T09:37:36.357Z,11.80
2023-01-01T09:40:06.063Z,11.80
2023-01-01T09:42:39.714Z,11.90
2023-01-01T09:45:21.043Z,11.60
2023-01-01T09:47:52.129Z,11.60
2023-01-01T09:50:23.094Z,11.80
2023-01-01T09:52:55.125Z,11.70
2023-01-01T09:55:27.774Z,11.80
2023-01-01T09:57:57.079Z,11.80
2023-01-01T10:00:25.213Z,11.90
2023-01-01T10:03:07.855Z,11.90
2023-01-01T10:05:44.069Z,11.90
2023-01-01T10:08:23.657Z,12.00
2023-01-01T10:10:59.476Z,12.00
2023-01-01T10:13:34.149Z,12.00
2023-01-01T10:16:09.739Z,12.00
2023-01-01T10:18:39.833Z,12.10
2023-01-01T10:21:13.707Z,12.10
2023-01-01T10:23:45.728Z,12.10
2023-01-01T10:26:17.714Z,12.10
2023-01-01T10:28:52.542Z,12.20
2023-01-01T10:31:27.118Z,12.30
2023-01-01T10:33:54.945Z,12.30
2023-01-01T10:36:22.792Z,12.40
2023-01-01T10:38:51.851Z,12.50
2023-01-01T10:41:20.993Z,12.50
2023-01-01T10:43:49.867Z,12.60
2023-01-01T10:46:27.658Z,12.70
2023-01-01T10:49:10.445Z,12.70
2023-01-01T10:51:42.763Z,12.80
2023-01-01T10:54:20.317Z,12.80
2023-01-01T10:56:49.442Z,12.80
2023-01-01T10:59:35.310Z,12.90
2023-01-01T11:02:17.137Z,13.10
2023-01-01T11:04:45.291Z,13.00
2023-01-01T11:07:22.527Z,13.20
2023-01-01T11:10:02.727Z,13.40
2023-01-01T11:15:37.138Z,13.30
2023-01-01T11:18:07.412Z,13.10
2023-01-01T11:20:35.587Z,13.30
2023-01-01T11:23:20.838Z,13.50
2023-01-01T11:26:00.454Z,13.70
2023-01-01T11:28:31.583Z,13.50
2023-01-01T11:31:12.028Z,13.50
2023-01-01T11:33:45.209Z,13.80
2023-01-01T11:36:21.020Z,14.10
2023-01-01T11:38:51.022Z,13.80
2023-01-01T11:41:19.048Z,13.70
2023-01-01T11:43:49.996Z,14.30
2023-01-01T11:46:24.602Z,13.90
2023-01-01T11:48:54.857Z,13.80
2023-01-01T11:51:33.325Z,13.90
2023-01-01T11:54:30.394Z,14.40
2023-01-01T11:57:04.125Z,14.20
2023-01-01T11:59:42.213Z,14.10
2023-01-01T12:02:15.541Z,14.30
2023-01-01T12:04:50.089Z,14.10
2023-01-01T12:07:22.984Z,14.30
2023-01-01T12:09:56.186Z,14.30
2023-01-01T12:12:29.015Z,14.20
2023-01-01T12:15:03.596Z,14.30
2023-01-01T12:17:38.146Z,14.00
2023-01-01T12:20:12.361Z,14.30
2023-01-01T12:22:41.011Z,14.30
2023-01-01T12:25:14.904Z,14.70
2023-01-01T12:27:56.288Z,14.20
2023-01-01T12:30:31.296Z,14.80
2023-01-01T12:33:22.053Z,14.70
2023-01-01T12:36:06.916Z,14.50
2023-01-01T12:38:49.675Z,14.90
2023-01-01T12:41:29.874Z,14.80
2023-01-01T12:44:05.502Z,14.90
2023-01-01T12:46:45.989Z,15.10
2023-01-01T12:49:27.970Z,15.10
2023-01-01T12:52:15.666Z,15.40
2023-01-01T13:21:16.359Z,17.40
2023-01-01T13:24:47.144Z,17.70
2023-01-01T13:39:37.662Z,18.50
2023-01-01T13:43:09.886Z,18.70
2023-01-01T13:57:06.049Z,18.40
2023-01-01T14:15:14.908Z,17.80
2023-01-01T14:22:21.646Z,17.70
2023-01-01T14:24:54.400Z,17.60
2023-01-01T14:27:23.222Z,17.40
2023-01-01T14:29:52.458Z,17.20
2023-01-01T14:32:24.933Z,17.20
2023-01-01T14:35:02.917Z,17.10
2023-01-01T14:37:30.685Z,17.00
2023-01-01T14:40:17.335Z,16.90
2023-01-01T14:42:46.683Z,16.80
2023-01-01T14:45:17.046Z,16.70
2023-01-01T14:47:49.417Z,16.60
2023-01-01T14:50:24.575Z,16.40
2023-01-01T14:52:56.266Z,16.30
2023-01-01T14:55:36.131Z,16.10
2023-01-01T14:58:04.414Z,16.00
2023-01-01T15:00:34.105Z,15.90
2023-01-01T15:03:08.217Z,15.80
2023-01-01T15:05:37.046Z,15.60
2023-01-01T15:08:07.231Z,15.50
2023-01-01T15:10:38.989Z,15.40
2023-01-01T15:13:08.182Z,15.30
2023-01-01T15:15:41.339Z,15.30
2023-01-01T15:18:39.520Z,15.20
2023-01-01T15:21:13.286Z,15.10
2023-01-01T15:23:47.367Z,15.10
2023-01-01T15:26:26.155Z,14.90
2023-01-01T15:28:54.071Z,14.80
2023-01-01T15:31:23.048Z,14.80
2023-01-01T15:33:52.817Z,14.70
2023-01-01T15:36:25.522Z,14.70
2023-01-01T15:38:53.865Z,14.60
2023-01-01T15:41:26.196Z,14.50
2023-01-01T15:44:07.209Z,14.50
2023-01-01T15:46:35.458Z,14.40
2023-01-01T15:49:04.653Z,14.40
2023-01-01T15:51:32.527Z,14.30
2023-01-01T15:54:02.852Z,14.30
2023-01-01T15:56:32.939Z,14.10
2023-01-01T15:59:09.074Z,14.10
2023-01-01T16:01:40.468Z,14.00
2023-01-01T16:04:11.912Z,14.80
2023-01-01T16:06:44.834Z,13.90
2023-01-01T16:09:13.721Z,14.00
2023-01-01T16:11:41.675Z,13.90
2023-01-01T16:14:09.739Z,13.70
2023-01-01T16:16:39.214Z,13.60
2023-01-01T16:19:07.327Z,13.70
2023-01-01T16:21:36.427Z,13.70
2023-01-01T16:24:04.293Z,13.70
2023-01-01T16:26:32.024Z,13.70
2023-01-01T16:28:59.887Z,13.60
2023-01-01T16:31:28.784Z,13.70
2023-01-01T16:33:58.610Z,13.60
2023-01-01T16:36:29.070Z,13.60
2023-01-01T16:38:59.113Z,13.50
2023-01-01T16:41:30.112Z,13.40
2023-01-01T16:43:58.363Z,13.50
2023-01-01T16:46:27.881Z,13.60
2023-01-01T16:48:55.720Z,13.40
2023-01-01T16:51:25.900Z,13.50
2023-01-01T16:53:53.751Z,13.30
2023-01-01T16:56:22.907Z,13.30
2023-01-01T16:58:54.222Z,13.30
2023-01-01T17:01:26.119Z,13.30
2023-01-01T17:03:53.967Z,13.30
2023-01-01T17:06:21.731Z,13.30
2023-01-01T17:08:49.495Z,13.20
2023-01-01T17:11:18.790Z,13.20
2023-01-01T17:13:48.997Z,13.20
2023-01-01T17:16:25.949Z,13.10
2023-01-01T17:21:44.590Z,13.10
2023-01-01T17:24:12.438Z,13.00
2023-01-01T17:26:40.267Z,13.00
2023-01-01T17:29:09.417Z,13.00
2023-01-01T17:31:37.464Z,13.00
2023-01-01T17:34:05.606Z,12.90
2023-01-01T17:36:33.528Z,13.00
2023-01-01T17:39:01.479Z,13.00
2023-01-01T17:41:29.233Z,13.00
2023-01-01T17:43:57.662Z,13.00
2023-01-01T17:46:29.538Z,12.90
2023-01-01T17:48:57.710Z,13.00
2023-01-01T17:51:25.526Z,12.90
2023-01-01T17:53:53.948Z,12.90
2023-01-01T17:56:23.194Z,12.90
2023-01-01T17:58:53.849Z,12.90
2023-01-01T18:01:31.707Z,12.90
2023-01-01T18:04:02.005Z,13.00
2023-01-01T18:06:31.249Z,12.80
2023-01-01T18:09:00.463Z,12.60
2023-01-01T18:11:29.821Z,12.80
2023-01-01T18:13:57.893Z,12.60
2023-01-01T18:16:26.462Z,12.80
2023-01-01T18:18:55.964Z,13.30
2023-01-01T18:21:24.782Z,12.80
2023-01-01T18:23:54.681Z,13.00
2023-01-01T18:26:23.945Z,12.60
2023-01-01T18:28:55.806Z,12.70
2023-01-01T18:31:24.082Z,12.80
2023-01-01T18:33:52.244Z,12.70
2023-01-01T18:36:24.231Z,12.90
2023-01-01T18:38:58.196Z,12.90
2023-01-01T18:41:41.975Z,12.60
2023-01-01T18:44:19.324Z,12.60
2023-01-01T18:46:50.660Z,12.50
2023-01-01T18:49:18.449Z,12.50
2023-01-01T18:51:52.420Z,13.10
2023-01-01T18:54:20.164Z,12.70
2023-01-01T18:56:48.595Z,12.60
2023-01-01T18:59:21.613Z,12.50
2023-01-01T19:01:49.862Z,12.60
2023-01-01T19:04:19.531Z,12.70
2023-01-01T19:06:48.686Z,12.40
2023-01-01T19:09:20.894Z,12.20
2023-01-01T19:11:55.832Z,12.40
2023-01-01T19:14:25.419Z,12.20
2023-01-01T19:16:58.835Z,12.40
2023-01-01T19:19:31.935Z,12.40
2023-01-01T19:22:19.303Z,12.40
2023-01-01T19:24:47.074Z,12.40
2023-01-01T19:27:18.284Z,12.60
2023-01-01T19:29:48.082Z,12.40
2023-01-01T19:32:16.216Z,12.40
2023-01-01T19:34:44.249Z,12.70
2023-01-01T19:37:13.391Z,12.40
2023-01-01T19:39:41.198Z,12.40
2023-01-01T19:42:09.407Z,12.30
2023-01-01T19:44:39.567Z,12.30
2023-01-01T19:47:09.115Z,12.30
2023-01-01T19:49:37.025Z,12.40
2023-01-01T19:52:06.143Z,12.30
2023-01-01T19:54:35.461Z,12.30
2023-01-01T19:57:05.482Z,12.30
2023-01-01T19:59:39.385Z,12.10
2023-01-01T20:02:44.223Z,12.20
2023-01-01T20:04:55.236Z,12.20
2023-01-01T20:07:23.021Z,12.10
2023-01-01T20:09:52.097Z,12.20
2023-01-01T20:12:19.862Z,12.10
2023-01-01T20:14:47.615Z,12.10
2023-01-01T20:17:15.634Z,12.10
2023-01-01T20:19:45.098Z,12.10
2023-01-01T20:22:14.094Z,12.10
2023-01-01T20:24:42.348Z,12.10
2023-01-01T20:27:12.153Z,11.90
2023-01-01T20:29:40.461Z,12.00
2023-01-01T20:32:12.416Z,12.10
2023-01-01T20:34:40.724Z,12.00
2023-01-01T20:37:26.651Z,12.00
2023-01-01T20:39:54.682Z,12.00
2023-01-01T20:42:23.810Z,12.00
2023-01-01T20:44:51.568Z,12.00
2023-01-01T20:47:19.350Z,12.00
2023-01-01T20:49:47.123Z,11.90
2023-01-01T20:52:14.914Z,11.90
2023-01-01T20:54:42.695Z,12.00
2023-01-01T20:57:10.497Z,11.90
2023-01-01T20:59:39.635Z,11.80
2023-01-01T21:02:09.446Z,11.80
2023-01-01T21:04:39.347Z,11.90
2023-01-01T21:07:08.930Z,11.90
2023-01-01T21:09:36.831Z,11.80
2023-01-01T21:12:07.876Z,11.80
2023-01-01T21:14:35.902Z,11.80
2023-01-01T21:17:18.362Z,11.80
2023-01-01T21:19:46.178Z,11.80
2023-01-01T21:22:14.850Z,11.70
2023-01-01T21:24:49.688Z,11.70
2023-01-01T21:27:26.314Z,11.60
2023-01-01T21:30:00.327Z,11.80
2023-01-01T21:32:38.441Z,11.60
2023-01-01T21:35:16.824Z,11.50
2023-01-01T21:37:51.026Z,11.60
2023-01-01T21:40:34.000Z,11.50
2023-01-01T21:43:28.570Z,11.50
2023-01-01T21:46:00.721Z,11.50
2023-01-01T21:48:33.324Z,11.20
2023-01-01T21:51:01.997Z,11.40
2023-01-01T21:53:31.517Z,11.60
2023-01-01T21:59:03.503Z,11.60
2023-01-01T22:01:38.162Z,11.40
2023-01-01T22:04:21.375Z,11.60
2023-01-01T22:06:54.321Z,11.40
2023-01-01T22:09:25.587Z,11.50
2023-01-01T22:11:57.974Z,11.70
2023-01-01T22:14:27.002Z,11.90
2023-01-01T22:16:56.773Z,11.70
2023-01-01T22:19:29.666Z,11.60
2023-01-01T22:21:57.614Z,11.50
2023-01-01T22:24:33.212Z,11.40
2023-01-01T22:27:18.932Z,11.50
2023-01-01T22:29:46.841Z,11.70
2023-01-01T22:32:20.841Z,11.40
2023-01-01T22:34:51.324Z,11.30
2023-01-01T22:37:21.112Z,11.30
2023-01-01T22:39:50.740Z,11.50
2023-01-01T22:42:20.183Z,11.40
2023-01-01T22:44:56.836Z,11.50
2023-01-01T22:47:31.696Z,11.00
2023-01-01T22:50:02.343Z,11.30
2023-01-01T22:52:30.427Z,11.20
2023-01-01T22:54:58.228Z,11.30
2023-01-01T22:57:25.992Z,11.30
2023-01-01T22:59:53.742Z,11.20
2023-01-01T23:02:21.552Z,11.10
2023-01-01T23:04:49.311Z,11.00
2023-01-01T23:07:18.422Z,11.00
2023-01-01T23:09:46.173Z,11.20
2023-01-01T23:12:14.016Z,11.10
2023-01-01T23:14:59.482Z,11.00
2023-01-01T23:17:27.209Z,11.00
2023-01-01T23:19:58.272Z,11.00
2023-01-01T23:22:29.239Z,11.00
2023-01-01T23:24:57.358Z,11.00
2023-01-01T23:27:25.155Z,11.10
2023-01-01T23:29:55.399Z,11.00
2023-01-01T23:32:23.143Z,10.80
2023-01-01T23:34:50.929Z,10.90
2023-01-01T23:37:18.739Z,10.80
2023-01-01T23:39:47.860Z,10.80
2023-01-01T23:42:15.614Z,11.00
2023-01-01T23:44:43.376Z,10.70
2023-01-01T23:47:11.739Z,10.80
2023-01-01T23:49:39.882Z,10.80
2023-01-01T23:52:07.736Z,10.90
2023-01-01T23:54:35.515Z,10.90
2023-01-01T23:57:04.789Z,10.90
2023-01-01T23:59:32.574Z,10.90
